createdAt,value
2019-04-14T00:01:52.326Z,18.62
2019-04-14T00:04:22.850Z,20.37
2019-04-14T00:06:52.505Z,20.40
2019-04-14T00:09:25.016Z,18.77
2019-04-14T00:11:54.820Z,21.05
2019-04-14T00:14:23.611Z,21.40
2019-04-14T00:16:53.200Z,22.02
2019-04-14T00:19:21.901Z,21.50
2019-04-14T00:21:50.563Z,21.93
2019-04-14T00:24:19.162Z,23.57
2019-04-14T00:26:48.786Z,22.87
2019-04-14T00:29:17.552Z,23.12
2019-04-14T00:31:46.028Z,22.85
2019-04-14T00:34:16.222Z,23.85
2019-04-14T00:36:46.319Z,24.43
2019-04-14T00:39:16.488Z,24.93
2019-04-14T00:42:05.362Z,25.97
2019-04-14T00:44:41.235Z,25.45
2019-04-14T00:47:14.218Z,22.40
2019-04-14T00:49:42.680Z,23.20
2019-04-14T00:52:12.385Z,23.67
2019-04-14T00:54:41.427Z,22.40
2019-04-14T00:57:10.084Z,22.13
2019-04-14T00:59:39.788Z,24.70
2019-04-14T01:02:09.890Z,23.92
2019-04-14T01:04:40.482Z,24.13
2019-04-14T01:07:09.231Z,23.80
2019-04-14T01:09:39.107Z,24.40
2019-04-14T01:12:10.294Z,24.12
2019-04-14T01:14:39.060Z,23.47
2019-04-14T01:17:07.549Z,24.35
2019-04-14T01:19:37.292Z,23.32
2019-04-14T01:22:07.355Z,23.98
2019-04-14T01:24:36.051Z,23.70
2019-04-14T01:27:06.060Z,23.65
2019-04-14T01:29:36.419Z,23.98
2019-04-14T01:32:04.880Z,23.87
2019-04-14T01:34:33.390Z,22.82
2019-04-14T01:37:02.877Z,23.38
2019-04-14T01:39:32.766Z,25.55
2019-04-14T01:42:04.833Z,24.25
2019-04-14T01:44:35.279Z,24.70
2019-04-14T01:47:05.273Z,24.63
2019-04-14T01:49:33.881Z,22.52
2019-04-14T01:52:10.310Z,24.92
2019-04-14T01:54:57.989Z,24.72
2019-04-14T01:57:35.028Z,24.60
2019-04-14T02:00:23.357Z,24.85
2019-04-14T02:02:53.437Z,23.38
2019-04-14T02:05:21.891Z,23.97
2019-04-14T02:07:51.501Z,24.45
2019-04-14T02:10:21.545Z,24.07
2019-04-14T02:13:09.802Z,25.35
2019-04-14T02:15:39.482Z,24.35
2019-04-14T02:18:08.394Z,24.15
2019-04-14T02:20:38.117Z,25.23
2019-04-14T02:23:10.751Z,24.37
2019-04-14T02:25:42.782Z,25.30
2019-04-14T02:28:11.736Z,24.87
2019-04-14T02:30:49.530Z,25.57
2019-04-14T02:33:40.179Z,25.88
2019-04-14T02:36:19.941Z,25.37
2019-04-14T02:38:49.036Z,24.98
2019-04-14T02:43:51.059Z,24.10
2019-04-14T02:46:10.737Z,25.68
2019-04-14T02:51:20.828Z,24.77
2019-04-14T02:56:16.154Z,26.75
2019-04-14T02:58:55.172Z,26.50
2019-04-14T03:03:46.206Z,25.65
2019-04-14T03:06:13.020Z,27.80
2019-04-14T03:09:01.235Z,25.97
2019-04-14T03:11:17.381Z,25.55
2019-04-14T03:16:25.823Z,24.90
2019-04-14T03:19:06.442Z,25.40
2019-04-14T03:24:21.718Z,22.50
2019-04-14T03:26:51.791Z,23.87
2019-04-14T03:29:29.421Z,25.43
2019-04-14T03:39:26.557Z,25.50
2019-04-14T03:41:52.799Z,25.30
2019-04-14T03:44:28.095Z,25.43
2019-04-14T03:46:59.014Z,25.97
2019-04-14T03:54:21.697Z,26.25
2019-04-14T03:56:51.391Z,26.37
2019-04-14T03:59:20.674Z,27.42
2019-04-14T04:01:54.285Z,25.68
2019-04-14T04:04:23.050Z,26.95
2019-04-14T04:06:53.042Z,23.92
2019-04-14T04:09:23.595Z,25.48
2019-04-14T04:11:54.128Z,25.48
2019-04-14T04:14:22.738Z,25.45
2019-04-14T04:16:52.982Z,26.27
2019-04-14T04:19:23.312Z,26.50
2019-04-14T04:21:55.935Z,25.52
2019-04-14T04:24:35.426Z,26.27
2019-04-14T04:27:06.864Z,23.85
2019-04-14T04:29:37.860Z,23.27
2019-04-14T04:32:23.547Z,24.60
2019-04-14T04:34:53.677Z,23.22
2019-04-14T04:37:23.779Z,24.75
2019-04-14T04:39:54.057Z,22.50
2019-04-14T04:42:24.265Z,24.27
2019-04-14T04:44:53.464Z,22.90
2019-04-14T04:47:23.153Z,23.62
2019-04-14T04:49:53.259Z,23.98
2019-04-14T04:52:23.668Z,25.23
2019-04-14T04:54:52.683Z,25.15
2019-04-14T04:57:24.238Z,25.17
2019-04-14T04:59:53.978Z,24.10
2019-04-14T05:02:24.413Z,24.57
2019-04-14T05:04:53.032Z,23.15
2019-04-14T05:07:21.555Z,22.48
2019-04-14T05:10:06.734Z,22.22
2019-04-14T05:12:37.031Z,23.45
2019-04-14T05:15:09.460Z,23.80
2019-04-14T05:17:40.915Z,25.05
2019-04-14T05:20:10.079Z,25.10
2019-04-14T05:22:39.666Z,24.55
2019-04-14T05:25:10.173Z,24.00
2019-04-14T05:27:38.766Z,24.05
2019-04-14T05:30:08.906Z,23.55
2019-04-14T05:32:39.032Z,24.07
2019-04-14T05:35:10.486Z,23.30
2019-04-14T05:37:39.980Z,22.45
2019-04-14T05:40:10.534Z,22.93
2019-04-14T05:42:40.613Z,23.27
2019-04-14T05:45:09.715Z,21.52
2019-04-14T05:47:39.283Z,23.60
2019-04-14T05:50:09.406Z,23.75
2019-04-14T05:52:38.294Z,22.70
2019-04-14T05:55:08.778Z,23.52
2019-04-14T05:57:37.447Z,23.00
2019-04-14T06:00:12.374Z,23.52
2019-04-14T06:02:41.962Z,22.93
2019-04-14T06:05:12.618Z,23.25
2019-04-14T06:07:40.948Z,23.35
2019-04-14T06:10:09.890Z,22.32
2019-04-14T06:12:38.417Z,23.07
2019-04-14T06:15:07.303Z,22.95
2019-04-14T06:17:35.784Z,23.27
2019-04-14T06:20:05.326Z,23.30
2019-04-14T06:22:33.855Z,22.80
2019-04-14T06:25:03.813Z,22.17
2019-04-14T06:27:32.306Z,23.15
2019-04-14T06:30:02.419Z,24.15
2019-04-14T06:32:32.594Z,23.10
2019-04-14T06:38:08.387Z,23.67
2019-04-14T06:40:38.474Z,24.45
2019-04-14T06:43:06.945Z,24.30
2019-04-14T06:45:35.494Z,23.45
2019-04-14T06:48:04.725Z,25.12
2019-04-14T06:50:33.292Z,24.35
2019-04-14T06:53:01.974Z,25.23
2019-04-14T06:55:30.432Z,24.52
2019-04-14T06:57:58.885Z,24.15
2019-04-14T07:00:27.433Z,24.37
2019-04-14T07:02:55.912Z,24.00
2019-04-14T07:05:24.387Z,24.85
2019-04-14T07:07:57.343Z,24.07
2019-04-14T07:10:23.033Z,23.20
2019-04-14T07:13:13.750Z,24.02
2019-04-14T07:15:41.001Z,23.70
2019-04-14T07:18:12.194Z,23.55
2019-04-14T07:20:40.926Z,23.30
2019-04-14T07:23:09.425Z,23.57
2019-04-14T07:25:38.539Z,23.35
2019-04-14T07:28:07.064Z,24.75
2019-04-14T07:30:43.116Z,24.00
2019-04-14T07:33:13.284Z,23.27
2019-04-14T07:35:55.607Z,23.98
2019-04-14T07:38:42.134Z,24.45
2019-04-14T07:41:12.263Z,24.77
2019-04-14T07:43:54.221Z,23.75
2019-04-14T07:46:24.326Z,22.87
2019-04-14T07:48:54.500Z,22.42
2019-04-14T07:51:27.590Z,23.93
2019-04-14T07:54:00.168Z,22.97
2019-04-14T07:56:33.027Z,22.50
2019-04-14T07:59:03.401Z,22.85
2019-04-14T08:01:51.964Z,22.98
2019-04-14T08:04:28.100Z,22.40
2019-04-14T08:06:57.128Z,20.48
2019-04-14T08:09:25.706Z,22.58
2019-04-14T08:11:54.471Z,22.55
2019-04-14T08:14:22.925Z,22.67
2019-04-14T08:16:51.469Z,21.93
2019-04-14T08:19:19.935Z,22.77
2019-04-14T08:21:48.392Z,23.83
2019-04-14T08:24:18.478Z,24.05
2019-04-14T08:26:47.079Z,23.90
2019-04-14T08:29:15.620Z,22.90
2019-04-14T08:31:44.228Z,24.07
2019-04-14T08:34:12.828Z,23.62
2019-04-14T08:36:41.696Z,22.13
2019-04-14T08:39:11.561Z,25.00
2019-04-14T08:41:41.778Z,23.47
2019-04-14T08:44:17.962Z,23.60
2019-04-14T08:47:05.920Z,23.32
2019-04-14T08:49:44.736Z,23.50
2019-04-14T08:52:14.968Z,23.27
2019-04-14T08:54:45.212Z,22.10
2019-04-14T08:57:18.122Z,24.10
2019-04-14T08:59:56.811Z,22.20
2019-04-14T09:02:27.215Z,23.30
2019-04-14T09:04:57.363Z,22.62
2019-04-14T09:07:28.616Z,21.60
2019-04-14T09:09:58.805Z,21.42
2019-04-14T09:12:29.258Z,21.42
2019-04-14T09:14:57.830Z,22.42
2019-04-14T09:17:28.304Z,22.67
2019-04-14T09:19:58.693Z,22.25
2019-04-14T09:22:27.364Z,23.00
2019-04-14T09:24:55.968Z,19.65
2019-04-14T09:27:24.444Z,20.32
2019-04-14T09:29:54.102Z,19.45
2019-04-14T09:32:23.092Z,20.95
2019-04-14T09:34:51.601Z,19.67
2019-04-14T09:37:20.076Z,20.55
2019-04-14T09:39:48.674Z,19.75
2019-04-14T09:42:17.420Z,17.65
2019-04-14T09:44:45.909Z,18.32
2019-04-14T09:47:14.476Z,19.20
2019-04-14T09:49:42.927Z,17.32
2019-04-14T09:52:11.655Z,16.40
2019-04-14T09:54:40.200Z,16.70
2019-04-14T09:57:08.720Z,16.55
2019-04-14T09:59:37.191Z,16.65
2019-04-14T10:02:05.794Z,17.17
2019-04-14T10:04:34.357Z,17.48
2019-04-14T10:07:03.039Z,16.45
2019-04-14T10:09:31.717Z,16.15
2019-04-14T10:12:00.434Z,16.02
2019-04-14T10:14:28.960Z,15.43
2019-04-14T10:17:01.133Z,15.53
2019-04-14T10:19:28.924Z,14.83
2019-04-14T10:21:57.440Z,14.78
2019-04-14T10:24:25.998Z,14.38
2019-04-14T10:26:54.530Z,14.75
2019-04-14T10:29:24.498Z,14.55
2019-04-14T10:31:53.003Z,14.93
2019-04-14T10:34:21.546Z,14.43
2019-04-14T10:36:50.018Z,13.95
2019-04-14T10:39:18.576Z,13.87
2019-04-14T10:41:47.141Z,14.07
2019-04-14T10:44:15.621Z,13.70
2019-04-14T10:46:44.101Z,13.45
2019-04-14T10:49:13.808Z,13.53
2019-04-14T10:51:43.468Z,13.53
2019-04-14T10:54:11.953Z,14.43
2019-04-14T10:56:40.494Z,13.53
2019-04-14T10:59:09.635Z,13.58
2019-04-14T11:01:38.468Z,14.00
2019-04-14T11:04:08.155Z,14.10
2019-04-14T11:06:41.429Z,13.75
2019-04-14T11:09:15.632Z,13.72
2019-04-14T11:11:44.751Z,13.22
2019-04-14T11:14:13.331Z,13.68
2019-04-14T11:16:41.849Z,14.20
2019-04-14T11:19:10.419Z,13.40
2019-04-14T11:21:42.744Z,12.58
2019-04-14T11:24:09.507Z,13.53
2019-04-14T11:26:38.007Z,13.58
2019-04-14T11:29:06.572Z,13.18
2019-04-14T11:31:36.999Z,13.75
2019-04-14T11:34:06.055Z,13.38
2019-04-14T11:36:54.363Z,12.17
2019-04-14T11:39:24.185Z,12.98
2019-04-14T11:41:54.406Z,13.10
2019-04-14T11:44:22.869Z,12.88
2019-04-14T11:46:51.690Z,13.22
2019-04-14T11:49:20.725Z,12.67
2019-04-14T11:51:55.675Z,13.28
2019-04-14T11:54:22.812Z,13.87
2019-04-14T11:56:51.399Z,13.38
2019-04-14T11:59:21.512Z,13.20
2019-04-14T12:02:04.741Z,13.75
2019-04-14T12:04:37.726Z,12.83
2019-04-14T12:07:09.239Z,12.87
2019-04-14T12:09:43.352Z,12.73
2019-04-14T12:12:12.055Z,12.45
2019-04-14T12:14:40.612Z,12.88
2019-04-14T12:17:10.526Z,12.47
2019-04-14T12:19:39.057Z,12.65
2019-04-14T12:22:08.740Z,11.50
2019-04-14T12:24:37.761Z,11.85
2019-04-14T12:27:06.704Z,11.25
2019-04-14T12:29:35.245Z,12.03
2019-04-14T12:32:06.288Z,11.03
2019-04-14T12:34:35.666Z,11.08
2019-04-14T12:37:05.703Z,10.38
2019-04-14T12:39:34.341Z,11.65
2019-04-14T12:42:20.947Z,11.90
2019-04-14T12:45:07.346Z,11.30
2019-04-14T12:47:43.278Z,11.33
2019-04-14T12:50:19.844Z,11.18
2019-04-14T12:52:48.390Z,12.07
2019-04-14T12:55:16.881Z,11.50
2019-04-14T12:57:47.067Z,11.33
2019-04-14T13:00:20.902Z,11.93
2019-04-14T13:02:50.985Z,10.70
2019-04-14T13:05:19.467Z,10.80
2019-04-14T13:07:47.918Z,9.85
2019-04-14T13:10:16.507Z,10.57
2019-04-14T13:12:44.995Z,11.10
2019-04-14T13:15:13.598Z,10.40
2019-04-14T13:17:42.116Z,10.60
2019-04-14T13:20:11.151Z,10.43
2019-04-14T13:22:39.606Z,10.20
2019-04-14T13:25:08.664Z,10.75
2019-04-14T13:27:37.509Z,10.85
2019-04-14T13:30:09.187Z,10.90
2019-04-14T13:32:37.810Z,11.70
2019-04-14T13:35:07.629Z,11.10
2019-04-14T13:37:36.095Z,10.90
2019-04-14T13:40:06.997Z,10.96
2019-04-14T13:42:37.021Z,10.40
2019-04-14T13:45:06.538Z,10.70
2019-04-14T13:47:35.067Z,10.25
2019-04-14T13:50:06.115Z,10.57
2019-04-14T13:52:45.953Z,11.08
2019-04-14T13:55:05.935Z,10.43
2019-04-14T13:57:34.434Z,10.95
2019-04-14T14:00:03.126Z,9.45
2019-04-14T14:02:31.600Z,10.78
2019-04-14T14:05:00.092Z,10.20
2019-04-14T14:07:28.613Z,10.35
2019-04-14T14:09:57.344Z,9.83
2019-04-14T14:12:43.450Z,10.35
2019-04-14T14:15:20.522Z,10.43
2019-04-14T14:18:08.387Z,9.90
2019-04-14T14:20:56.711Z,10.10
2019-04-14T14:23:46.778Z,10.18
2019-04-14T14:26:19.672Z,11.15
2019-04-14T14:28:48.143Z,10.30
2019-04-14T14:31:18.075Z,11.03
2019-04-14T14:33:46.555Z,11.15
2019-04-14T14:36:15.016Z,10.35
2019-04-14T14:38:45.020Z,10.80
2019-04-14T14:41:16.547Z,10.53
2019-04-14T14:43:45.114Z,10.72
2019-04-14T14:46:15.276Z,10.10
2019-04-14T14:48:51.472Z,10.43
2019-04-14T14:51:31.466Z,10.40
2019-04-14T14:53:59.969Z,9.90
2019-04-14T14:56:28.480Z,10.47
2019-04-14T14:58:56.930Z,10.00
2019-04-14T15:01:25.411Z,10.48
2019-04-14T15:03:53.872Z,10.45
2019-04-14T15:06:22.450Z,11.22
2019-04-14T15:08:51.077Z,10.50
2019-04-14T15:11:19.922Z,10.65
2019-04-14T15:13:52.499Z,10.23
2019-04-14T15:19:10.688Z,11.08
2019-04-14T15:21:40.518Z,11.12
2019-04-14T15:24:10.958Z,10.10
2019-04-14T15:26:39.527Z,10.18
2019-04-14T15:29:08.002Z,10.60
2019-04-14T15:31:38.480Z,11.33
2019-04-14T15:34:27.120Z,10.55
2019-04-14T15:36:55.939Z,11.12
2019-04-14T15:39:24.471Z,11.10
2019-04-14T15:41:53.310Z,10.75
2019-04-14T15:44:22.088Z,11.10
2019-04-14T15:46:50.657Z,10.70
2019-04-14T15:49:19.489Z,10.28
2019-04-14T15:51:48.331Z,10.58
2019-04-14T15:54:16.857Z,10.18
2019-04-14T15:56:49.941Z,10.95
2019-04-14T15:59:32.209Z,10.40
2019-04-14T16:02:11.351Z,10.88
2019-04-14T16:04:50.304Z,9.40
2019-04-14T16:07:28.914Z,10.35
2019-04-14T16:10:08.117Z,10.13
2019-04-14T16:12:47.528Z,10.90
2019-04-14T16:15:20.567Z,10.85
2019-04-14T16:17:50.665Z,11.20
2019-04-14T16:20:20.852Z,10.90
2019-04-14T16:22:49.528Z,10.82
2019-04-14T16:25:18.354Z,11.45
2019-04-14T16:27:57.147Z,10.80
2019-04-14T16:30:33.246Z,11.22
2019-04-14T16:33:09.590Z,11.18
2019-04-14T16:35:39.473Z,10.63
2019-04-14T16:38:07.923Z,10.82
2019-04-14T16:40:37.095Z,11.40
2019-04-14T16:43:05.721Z,11.83
2019-04-14T16:45:34.275Z,11.60
2019-04-14T16:48:02.863Z,11.08
2019-04-14T16:50:31.411Z,12.47
2019-04-14T16:53:16.578Z,12.00
2019-04-14T16:55:49.684Z,12.45
2019-04-14T17:01:12.400Z,13.35
2019-04-14T17:03:40.957Z,11.73
2019-04-14T17:06:09.476Z,12.25
2019-04-14T17:08:37.932Z,11.95
2019-04-14T17:11:06.494Z,11.85
2019-04-14T17:13:36.768Z,11.90
2019-04-14T17:16:24.532Z,12.55
2019-04-14T17:18:57.240Z,12.50
2019-04-14T17:21:39.361Z,12.50
2019-04-14T17:24:16.730Z,12.97
2019-04-14T17:26:44.020Z,12.90
2019-04-14T17:29:23.097Z,12.50
2019-04-14T17:31:59.358Z,13.40
2019-04-14T17:34:35.410Z,12.78
2019-04-14T17:37:06.539Z,12.88
2019-04-14T17:39:36.747Z,13.35
2019-04-14T17:42:12.641Z,13.30
2019-04-14T17:44:42.751Z,13.20
2019-04-14T17:47:12.872Z,13.62
2019-04-14T17:49:58.359Z,13.65
2019-04-14T17:52:28.717Z,13.68
2019-04-14T17:54:58.837Z,12.60
2019-04-14T17:57:45.495Z,13.35
2019-04-14T18:00:32.164Z,14.23
2019-04-14T18:03:05.234Z,13.90
2019-04-14T18:05:38.076Z,12.93
2019-04-14T18:08:08.254Z,13.70
2019-04-14T18:10:44.460Z,12.93
2019-04-14T18:13:30.917Z,13.47
2019-04-14T18:16:09.721Z,13.32
2019-04-14T18:18:49.051Z,13.22
2019-04-14T18:21:20.218Z,12.70
2019-04-14T18:23:48.680Z,12.78
2019-04-14T18:26:17.281Z,12.25
2019-04-14T18:28:52.746Z,13.00
2019-04-14T18:31:28.616Z,13.03
2019-04-14T18:34:04.209Z,13.13
2019-04-14T18:36:40.067Z,13.05
2019-04-14T18:39:17.290Z,14.40
2019-04-14T18:41:52.887Z,14.13
2019-04-14T18:44:25.977Z,15.50
2019-04-14T18:46:59.048Z,14.60
2019-04-14T18:49:32.303Z,14.20
2019-04-14T18:52:05.114Z,13.95
2019-04-14T18:54:53.968Z,14.27
2019-04-14T18:57:28.734Z,13.20
2019-04-14T19:00:01.988Z,13.32
2019-04-14T19:02:30.538Z,13.68
2019-04-14T19:04:59.065Z,14.10
2019-04-14T19:07:27.636Z,13.68
2019-04-14T19:09:56.355Z,12.40
2019-04-14T19:12:32.615Z,12.80
2019-04-14T19:15:02.727Z,13.08
2019-04-14T19:17:38.481Z,13.32
2019-04-14T19:20:07.268Z,13.03
2019-04-14T19:22:35.960Z,13.65
2019-04-14T19:25:08.353Z,12.82
2019-04-14T19:27:36.056Z,12.65
2019-04-14T19:30:07.622Z,12.96
2019-04-14T19:32:36.107Z,13.40
2019-04-14T19:35:05.458Z,12.54
2019-04-14T19:37:34.016Z,13.20
2019-04-14T19:40:02.521Z,13.72
2019-04-14T19:42:30.956Z,14.23
2019-04-14T19:44:59.419Z,13.05
2019-04-14T19:47:27.905Z,13.45
2019-04-14T19:49:56.360Z,13.78
2019-04-14T19:52:24.844Z,14.18
2019-04-14T19:54:53.398Z,13.68
2019-04-14T19:57:22.649Z,14.73
2019-04-14T19:59:51.296Z,15.28
2019-04-14T20:02:19.816Z,15.15
2019-04-14T20:04:48.333Z,15.93
2019-04-14T20:07:18.254Z,16.12
2019-04-14T20:09:46.723Z,14.98
2019-04-14T20:12:15.751Z,14.30
2019-04-14T20:14:44.311Z,15.10
2019-04-14T20:17:17.643Z,14.75
2019-04-14T20:22:20.199Z,15.00
2019-04-14T20:24:56.385Z,14.83
2019-04-14T20:27:42.883Z,14.65
2019-04-14T20:30:29.236Z,14.80
2019-04-14T20:32:57.693Z,14.25
2019-04-14T20:35:26.309Z,15.15
2019-04-14T20:37:54.807Z,14.23
2019-04-14T20:40:23.259Z,14.45
2019-04-14T20:42:51.730Z,14.98
2019-04-14T20:45:20.286Z,14.55
2019-04-14T20:47:48.822Z,15.08
2019-04-14T20:50:18.080Z,15.00
2019-04-14T20:52:46.741Z,13.80
2019-04-14T20:55:15.199Z,15.08
2019-04-14T20:57:43.648Z,14.58
2019-04-14T21:00:12.860Z,14.87
2019-04-14T21:02:45.653Z,15.18
2019-04-14T21:05:15.748Z,15.30
2019-04-14T21:08:02.431Z,15.05
2019-04-14T21:10:35.056Z,15.58
2019-04-14T21:13:14.288Z,15.03
2019-04-14T21:15:47.098Z,14.87
2019-04-14T21:18:17.294Z,15.35
2019-04-14T21:20:59.904Z,14.23
2019-04-14T21:23:44.740Z,15.83
2019-04-14T21:26:14.963Z,14.97
2019-04-14T21:29:03.053Z,15.85
2019-04-14T21:31:39.183Z,15.90
2019-04-14T21:34:24.320Z,15.78
2019-04-14T21:37:10.956Z,15.45
2019-04-14T21:39:50.278Z,15.20
2019-04-14T21:42:19.874Z,15.48
2019-04-14T21:44:48.356Z,14.65
2019-04-14T21:47:16.940Z,14.18
2019-04-14T21:49:45.479Z,14.80
2019-04-14T21:52:27.924Z,14.30
2019-04-14T21:54:56.475Z,14.98
2019-04-14T21:57:26.579Z,14.18
2019-04-14T22:00:05.663Z,13.72
2019-04-14T22:02:52.631Z,13.45
2019-04-14T22:05:25.772Z,13.55
2019-04-14T22:08:01.826Z,13.25
2019-04-14T22:10:32.006Z,13.25
2019-04-14T22:13:00.505Z,14.03
2019-04-14T22:15:28.957Z,13.95
2019-04-14T22:17:57.492Z,13.58
2019-04-14T22:20:26.085Z,13.85
2019-04-14T22:22:54.787Z,13.65
2019-04-14T22:25:23.328Z,13.50
2019-04-14T22:27:51.957Z,13.75
2019-04-14T22:30:20.638Z,13.53
2019-04-14T22:32:49.163Z,13.18
2019-04-14T22:35:17.642Z,13.53
2019-04-14T22:37:46.186Z,13.25
2019-04-14T22:40:14.947Z,13.47
2019-04-14T22:42:43.715Z,13.88
2019-04-14T22:45:12.915Z,14.47
2019-04-14T22:47:41.534Z,14.00
2019-04-14T22:50:11.661Z,13.68
2019-04-14T22:52:40.159Z,14.47
2019-04-14T22:55:08.841Z,14.40
2019-04-14T22:57:37.457Z,13.88
2019-04-14T23:00:09.083Z,13.68
2019-04-14T23:02:42.034Z,14.10
2019-04-14T23:05:13.401Z,13.97
2019-04-14T23:07:52.551Z,14.20
2019-04-14T23:10:38.620Z,14.78
2019-04-14T23:13:21.167Z,14.83
2019-04-14T23:16:03.037Z,15.40
2019-04-14T23:18:39.022Z,14.18
2019-04-14T23:21:15.176Z,15.48
2019-04-14T23:23:51.255Z,14.80
2019-04-14T23:26:19.716Z,14.77
2019-04-14T23:28:48.170Z,14.20
2019-04-14T23:31:16.807Z,14.47
2019-04-14T23:33:45.271Z,15.58
2019-04-14T23:36:13.712Z,15.00
2019-04-14T23:38:42.287Z,15.70
2019-04-14T23:41:10.764Z,15.28
2019-04-14T23:43:39.300Z,15.03
2019-04-14T23:46:07.779Z,15.53
2019-04-14T23:48:36.269Z,15.60
2019-04-14T23:51:04.875Z,14.87
2019-04-14T23:53:33.412Z,15.88
2019-04-14T23:56:01.872Z,15.13
2019-04-14T23:58:30.331Z,14.63
